sensor_id;sensor_type;location;lat;lon;timestamp;P1;durP1;ratioP1;P2;durP2;ratioP2
35380;SDS011;21486;51.916;8.378;2023-03-03T01:33:03;44.78;;;23.65;;
35380;SDS011;21486;51.916;8.378;2023-03-03T01:35:29;48.40;;;25.33;;
35380;SDS011;21486;51.916;8.378;2023-03-03T01:37:55;48.60;;;25.08;;
35380;SDS011;21486;51.916;8.378;2023-03-03T01:40:24;46.70;;;23.98;;
35380;SDS011;21486;51.916;8.378;2023-03-03T01:42:51;47.20;;;24.95;;
35380;SDS011;21486;51.916;8.378;2023-03-03T01:45:30;48.47;;;25.67;;
35380;SDS011;21486;51.916;8.378;2023-03-03T01:48:13;47.50;;;25.58;;
35380;SDS011;21486;51.916;8.378;2023-03-03T01:53:27;47.15;;;25.35;;
35380;SDS011;21486;51.916;8.378;2023-03-03T01:56:00;51.80;;;26.52;;
35380;SDS011;21486;51.916;8.378;2023-03-03T01:58:30;51.60;;;27.60;;
35380;SDS011;21486;51.916;8.378;2023-03-03T02:01:10;55.55;;;29.05;;
35380;SDS011;21486;51.916;8.378;2023-03-03T02:03:39;58.50;;;29.80;;
35380;SDS011;21486;51.916;8.378;2023-03-03T02:06:08;59.42;;;30.08;;
35380;SDS011;21486;51.916;8.378;2023-03-03T02:11:09;57.28;;;29.85;;
35380;SDS011;21486;51.916;8.378;2023-03-03T02:13:36;64.27;;;30.87;;
35380;SDS011;21486;51.916;8.378;2023-03-03T02:16:01;65.50;;;31.43;;
35380;SDS011;21486;51.916;8.378;2023-03-03T02:18:27;66.65;;;32.83;;
35380;SDS011;21486;51.916;8.378;2023-03-03T02:21:04;65.85;;;32.17;;
35380;SDS011;21486;51.916;8.378;2023-03-03T02:26:14;64.80;;;31.30;;
35380;SDS011;21486;51.916;8.378;2023-03-03T02:28:41;64.68;;;31.38;;
35380;SDS011;21486;51.916;8.378;2023-03-03T02:31:08;67.63;;;32.70;;
35380;SDS011;21486;51.916;8.378;2023-03-03T02:33:37;65.47;;;31.53;;
35380;SDS011;21486;51.916;8.378;2023-03-03T02:36:04;72.47;;;33.47;;
35380;SDS011;21486;51.916;8.378;2023-03-03T02:38:42;69.28;;;32.90;;
35380;SDS011;21486;51.916;8.378;2023-03-03T02:44:31;72.18;;;33.58;;
35380;SDS011;21486;51.916;8.378;2023-03-03T02:46:58;71.53;;;34.20;;
35380;SDS011;21486;51.916;8.378;2023-03-03T02:49:28;67.05;;;32.47;;
35380;SDS011;21486;51.916;8.378;2023-03-03T02:51:58;66.68;;;31.45;;
35380;SDS011;21486;51.916;8.378;2023-03-03T02:54:25;68.10;;;31.57;;
35380;SDS011;21486;51.916;8.378;2023-03-03T02:56:54;68.65;;;31.85;;
35380;SDS011;21486;51.916;8.378;2023-03-03T02:59:19;64.40;;;30.02;;
35380;SDS011;21486;51.916;8.378;2023-03-03T03:01:45;70.72;;;32.95;;
35380;SDS011;21486;51.916;8.378;2023-03-03T03:04:16;68.10;;;31.95;;
35380;SDS011;21486;51.916;8.378;2023-03-03T03:06:43;62.63;;;31.15;;
35380;SDS011;21486;51.916;8.378;2023-03-03T03:09:10;66.75;;;30.80;;
35380;SDS011;21486;51.916;8.378;2023-03-03T03:11:37;64.88;;;31.17;;
35380;SDS011;21486;51.916;8.378;2023-03-03T03:14:03;65.15;;;30.35;;
35380;SDS011;21486;51.916;8.378;2023-03-03T03:16:30;70.10;;;32.50;;
35380;SDS011;21486;51.916;8.378;2023-03-03T03:18:56;68.50;;;31.02;;
35380;SDS011;21486;51.916;8.378;2023-03-03T03:21:23;72.13;;;31.60;;
35380;SDS011;21486;51.916;8.378;2023-03-03T03:23:49;68.00;;;30.03;;
35380;SDS011;21486;51.916;8.378;2023-03-03T03:26:14;66.87;;;30.87;;
35380;SDS011;21486;51.916;8.378;2023-03-03T03:28:40;65.33;;;30.67;;
35380;SDS011;21486;51.916;8.378;2023-03-03T03:31:06;70.67;;;32.63;;
35380;SDS011;21486;51.916;8.378;2023-03-03T03:33:32;70.15;;;31.08;;
35380;SDS011;21486;51.916;8.378;2023-03-03T03:35:58;70.90;;;32.43;;
35380;SDS011;21486;51.916;8.378;2023-03-03T03:38:24;72.45;;;33.03;;
35380;SDS011;21486;51.916;8.378;2023-03-03T03:40:51;70.30;;;32.28;;
35380;SDS011;21486;51.916;8.378;2023-03-03T03:43:17;76.53;;;33.45;;
35380;SDS011;21486;51.916;8.378;2023-03-03T03:45:43;74.55;;;32.70;;
35380;SDS011;21486;51.916;8.378;2023-03-03T03:48:09;72.28;;;32.22;;
35380;SDS011;21486;51.916;8.378;2023-03-03T03:50:35;73.10;;;33.13;;
35380;SDS011;21486;51.916;8.378;2023-03-03T03:53:01;71.07;;;32.78;;
35380;SDS011;21486;51.916;8.378;2023-03-03T03:55:27;75.45;;;33.97;;
35380;SDS011;21486;51.916;8.378;2023-03-03T03:57:54;79.25;;;33.50;;
35380;SDS011;21486;51.916;8.378;2023-03-03T04:00:21;73.93;;;33.83;;
35380;SDS011;21486;51.916;8.378;2023-03-03T04:02:47;70.55;;;32.60;;
35380;SDS011;21486;51.916;8.378;2023-03-03T04:05:12;77.73;;;32.70;;
35380;SDS011;21486;51.916;8.378;2023-03-03T04:07:38;72.77;;;32.90;;
35380;SDS011;21486;51.916;8.378;2023-03-03T04:10:04;70.47;;;31.27;;
35380;SDS011;21486;51.916;8.378;2023-03-03T04:12:30;71.68;;;32.40;;
35380;SDS011;21486;51.916;8.378;2023-03-03T04:15:02;71.03;;;31.50;;
35380;SDS011;21486;51.916;8.378;2023-03-03T04:17:33;68.07;;;31.27;;
35380;SDS011;21486;51.916;8.378;2023-03-03T04:19:58;66.18;;;30.17;;
35380;SDS011;21486;51.916;8.378;2023-03-03T04:22:24;66.43;;;30.50;;
35380;SDS011;21486;51.916;8.378;2023-03-03T04:24:50;69.22;;;30.60;;
35380;SDS011;21486;51.916;8.378;2023-03-03T04:27:16;71.97;;;30.98;;
35380;SDS011;21486;51.916;8.378;2023-03-03T04:29:41;71.00;;;30.60;;
35380;SDS011;21486;51.916;8.378;2023-03-03T04:32:07;73.25;;;32.05;;
35380;SDS011;21486;51.916;8.378;2023-03-03T04:34:32;76.38;;;32.53;;
35380;SDS011;21486;51.916;8.378;2023-03-03T04:36:58;74.35;;;29.95;;
35380;SDS011;21486;51.916;8.378;2023-03-03T04:39:24;70.22;;;28.80;;
35380;SDS011;21486;51.916;8.378;2023-03-03T04:41:51;70.75;;;29.40;;
35380;SDS011;21486;51.916;8.378;2023-03-03T04:44:16;81.17;;;31.23;;
35380;SDS011;21486;51.916;8.378;2023-03-03T04:46:42;76.13;;;30.97;;
35380;SDS011;21486;51.916;8.378;2023-03-03T04:49:07;82.97;;;31.20;;
35380;SDS011;21486;51.916;8.378;2023-03-03T04:51:33;78.00;;;30.07;;
35380;SDS011;21486;51.916;8.378;2023-03-03T04:53:59;79.93;;;31.97;;
35380;SDS011;21486;51.916;8.378;2023-03-03T04:56:24;85.93;;;32.23;;
35380;SDS011;21486;51.916;8.378;2023-03-03T04:58:50;79.15;;;30.35;;
35380;SDS011;21486;51.916;8.378;2023-03-03T05:01:16;81.82;;;31.85;;
35380;SDS011;21486;51.916;8.378;2023-03-03T05:03:43;76.18;;;30.65;;
35380;SDS011;21486;51.916;8.378;2023-03-03T05:06:09;75.50;;;30.77;;
35380;SDS011;21486;51.916;8.378;2023-03-03T05:08:35;72.68;;;29.85;;
35380;SDS011;21486;51.916;8.378;2023-03-03T05:11:00;75.20;;;29.70;;
35380;SDS011;21486;51.916;8.378;2023-03-03T05:13:27;74.20;;;29.95;;
35380;SDS011;21486;51.916;8.378;2023-03-03T05:15:53;78.50;;;29.40;;
35380;SDS011;21486;51.916;8.378;2023-03-03T05:18:20;77.93;;;31.55;;
35380;SDS011;21486;51.916;8.378;2023-03-03T05:20:47;81.90;;;29.43;;
35380;SDS011;21486;51.916;8.378;2023-03-03T05:23:13;83.70;;;30.35;;
35380;SDS011;21486;51.916;8.378;2023-03-03T05:25:40;86.97;;;31.25;;
35380;SDS011;21486;51.916;8.378;2023-03-03T05:28:06;83.30;;;30.33;;
35380;SDS011;21486;51.916;8.378;2023-03-03T05:30:33;81.10;;;31.33;;
35380;SDS011;21486;51.916;8.378;2023-03-03T05:32:58;90.20;;;31.20;;
35380;SDS011;21486;51.916;8.378;2023-03-03T05:35:24;82.83;;;30.80;;
35380;SDS011;21486;51.916;8.378;2023-03-03T05:37:50;90.88;;;32.00;;
35380;SDS011;21486;51.916;8.378;2023-03-03T05:40:16;89.43;;;31.55;;
35380;SDS011;21486;51.916;8.378;2023-03-03T05:42:43;89.25;;;32.03;;
35380;SDS011;21486;51.916;8.378;2023-03-03T05:45:09;99.87;;;33.40;;
35380;SDS011;21486;51.916;8.378;2023-03-03T05:47:34;97.13;;;34.28;;
35380;SDS011;21486;51.916;8.378;2023-03-03T05:50:00;91.35;;;32.60;;
35380;SDS011;21486;51.916;8.378;2023-03-03T05:52:26;101.60;;;34.40;;
35380;SDS011;21486;51.916;8.378;2023-03-03T05:54:51;99.93;;;34.53;;
35380;SDS011;21486;51.916;8.378;2023-03-03T05:57:17;108.97;;;35.38;;
35380;SDS011;21486;51.916;8.378;2023-03-03T05:59:42;96.47;;;34.55;;
35380;SDS011;21486;51.916;8.378;2023-03-03T06:02:08;101.57;;;35.23;;
35380;SDS011;21486;51.916;8.378;2023-03-03T06:04:33;99.27;;;35.03;;
35380;SDS011;21486;51.916;8.378;2023-03-03T06:06:59;100.93;;;34.97;;
35380;SDS011;21486;51.916;8.378;2023-03-03T06:09:24;110.40;;;36.10;;
35380;SDS011;21486;51.916;8.378;2023-03-03T06:11:50;97.53;;;35.10;;
35380;SDS011;21486;51.916;8.378;2023-03-03T06:14:19;104.90;;;35.90;;
35380;SDS011;21486;51.916;8.378;2023-03-03T06:16:46;106.65;;;34.53;;
35380;SDS011;21486;51.916;8.378;2023-03-03T06:19:12;102.53;;;35.03;;
35380;SDS011;21486;51.916;8.378;2023-03-03T06:21:38;99.00;;;34.67;;
35380;SDS011;21486;51.916;8.378;2023-03-03T06:24:04;110.93;;;36.35;;
35380;SDS011;21486;51.916;8.378;2023-03-03T06:26:30;108.80;;;34.47;;
35380;SDS011;21486;51.916;8.378;2023-03-03T06:28:56;103.53;;;35.45;;
35380;SDS011;21486;51.916;8.378;2023-03-03T06:31:22;100.88;;;33.53;;
35380;SDS011;21486;51.916;8.378;2023-03-03T06:33:48;101.50;;;35.07;;
35380;SDS011;21486;51.916;8.378;2023-03-03T06:36:13;101.33;;;34.40;;
35380;SDS011;21486;51.916;8.378;2023-03-03T06:38:39;99.47;;;33.20;;
35380;SDS011;21486;51.916;8.378;2023-03-03T06:41:05;105.07;;;34.47;;
35380;SDS011;21486;51.916;8.378;2023-03-03T06:43:32;98.80;;;33.80;;
35380;SDS011;21486;51.916;8.378;2023-03-03T06:45:58;97.68;;;32.78;;
35380;SDS011;21486;51.916;8.378;2023-03-03T06:48:24;105.60;;;35.63;;
35380;SDS011;21486;51.916;8.378;2023-03-03T06:50:50;94.70;;;34.17;;
35380;SDS011;21486;51.916;8.378;2023-03-03T06:53:16;97.03;;;32.90;;
35380;SDS011;21486;51.916;8.378;2023-03-03T06:55:42;94.75;;;33.05;;
35380;SDS011;21486;51.916;8.378;2023-03-03T06:58:13;106.95;;;34.15;;
35380;SDS011;21486;51.916;8.378;2023-03-03T07:00:41;100.22;;;33.35;;
35380;SDS011;21486;51.916;8.378;2023-03-03T07:03:14;97.50;;;32.95;;
35380;SDS011;21486;51.916;8.378;2023-03-03T07:05:41;97.68;;;32.92;;
35380;SDS011;21486;51.916;8.378;2023-03-03T07:08:17;100.32;;;32.70;;
35380;SDS011;21486;51.916;8.378;2023-03-03T07:10:45;104.53;;;33.70;;
35380;SDS011;21486;51.916;8.378;2023-03-03T07:13:16;107.25;;;34.97;;
35380;SDS011;21486;51.916;8.378;2023-03-03T07:15:51;104.43;;;34.45;;
35380;SDS011;21486;51.916;8.378;2023-03-03T07:21:32;119.80;;;37.30;;
35380;SDS011;21486;51.916;8.378;2023-03-03T07:24:00;117.88;;;36.28;;
35380;SDS011;21486;51.916;8.378;2023-03-03T07:27:00;104.82;;;34.80;;
35380;SDS011;21486;51.916;8.378;2023-03-03T07:29:36;112.72;;;36.95;;
35380;SDS011;21486;51.916;8.378;2023-03-03T07:32:07;113.65;;;37.20;;
35380;SDS011;21486;51.916;8.378;2023-03-03T07:34:58;110.78;;;37.22;;
35380;SDS011;21486;51.916;8.378;2023-03-03T07:37:36;114.83;;;37.10;;
35380;SDS011;21486;51.916;8.378;2023-03-03T07:42:53;100.15;;;33.67;;
35380;SDS011;21486;51.916;8.378;2023-03-03T07:45:24;93.60;;;32.70;;
35380;SDS011;21486;51.916;8.378;2023-03-03T07:47:54;93.15;;;31.42;;
35380;SDS011;21486;51.916;8.378;2023-03-03T07:50:47;89.00;;;31.35;;
35380;SDS011;21486;51.916;8.378;2023-03-03T07:53:25;90.03;;;31.48;;
35380;SDS011;21486;51.916;8.378;2023-03-03T07:55:52;85.35;;;30.42;;
35380;SDS011;21486;51.916;8.378;2023-03-03T08:03:49;92.97;;;32.70;;
35380;SDS011;21486;51.916;8.378;2023-03-03T08:11:34;83.10;;;29.85;;
35380;SDS011;21486;51.916;8.378;2023-03-03T08:14:11;91.88;;;32.22;;
35380;SDS011;21486;51.916;8.378;2023-03-03T08:16:40;82.37;;;29.53;;
35380;SDS011;21486;51.916;8.378;2023-03-03T08:19:05;89.37;;;32.07;;
35380;SDS011;21486;51.916;8.378;2023-03-03T08:21:31;92.57;;;31.10;;
35380;SDS011;21486;51.916;8.378;2023-03-03T08:23:59;94.35;;;33.67;;
35380;SDS011;21486;51.916;8.378;2023-03-03T08:26:25;90.75;;;32.05;;
35380;SDS011;21486;51.916;8.378;2023-03-03T08:28:51;87.78;;;32.45;;
35380;SDS011;21486;51.916;8.378;2023-03-03T08:31:17;89.32;;;32.13;;
35380;SDS011;21486;51.916;8.378;2023-03-03T08:33:43;86.65;;;31.02;;
35380;SDS011;21486;51.916;8.378;2023-03-03T08:36:10;90.63;;;33.70;;
35380;SDS011;21486;51.916;8.378;2023-03-03T08:38:36;94.70;;;32.88;;
35380;SDS011;21486;51.916;8.378;2023-03-03T08:41:02;105.17;;;37.30;;
35380;SDS011;21486;51.916;8.378;2023-03-03T08:43:28;98.32;;;34.22;;
35380;SDS011;21486;51.916;8.378;2023-03-03T08:45:56;99.80;;;37.05;;
35380;SDS011;21486;51.916;8.378;2023-03-03T08:48:23;97.95;;;35.42;;
35380;SDS011;21486;51.916;8.378;2023-03-03T08:50:50;99.43;;;33.43;;
35380;SDS011;21486;51.916;8.378;2023-03-03T08:53:16;93.35;;;34.50;;
35380;SDS011;21486;51.916;8.378;2023-03-03T08:55:42;94.50;;;34.35;;
35380;SDS011;21486;51.916;8.378;2023-03-03T08:58:08;94.78;;;34.08;;
35380;SDS011;21486;51.916;8.378;2023-03-03T09:00:34;100.37;;;34.17;;
35380;SDS011;21486;51.916;8.378;2023-03-03T09:03:00;97.07;;;35.53;;
35380;SDS011;21486;51.916;8.378;2023-03-03T09:05:25;101.03;;;35.47;;
35380;SDS011;21486;51.916;8.378;2023-03-03T09:07:51;94.67;;;34.47;;
35380;SDS011;21486;51.916;8.378;2023-03-03T09:10:19;100.05;;;35.67;;
35380;SDS011;21486;51.916;8.378;2023-03-03T09:12:51;95.13;;;35.70;;
35380;SDS011;21486;51.916;8.378;2023-03-03T09:15:31;101.43;;;35.45;;
35380;SDS011;21486;51.916;8.378;2023-03-03T09:17:59;91.85;;;34.90;;
35380;SDS011;21486;51.916;8.378;2023-03-03T09:23:20;98.13;;;36.05;;
35380;SDS011;21486;51.916;8.378;2023-03-03T09:25:50;90.95;;;35.05;;
35380;SDS011;21486;51.916;8.378;2023-03-03T09:28:23;89.60;;;32.60;;
35380;SDS011;21486;51.916;8.378;2023-03-03T09:30:58;92.90;;;33.70;;
35380;SDS011;21486;51.916;8.378;2023-03-03T09:33:44;93.70;;;35.33;;
35380;SDS011;21486;51.916;8.378;2023-03-03T09:36:29;81.88;;;32.42;;
35380;SDS011;21486;51.916;8.378;2023-03-03T09:39:03;79.88;;;32.28;;
35380;SDS011;21486;51.916;8.378;2023-03-03T09:44:25;78.93;;;31.05;;
35380;SDS011;21486;51.916;8.378;2023-03-03T09:52:36;80.80;;;30.73;;
35380;SDS011;21486;51.916;8.378;2023-03-03T09:55:21;83.32;;;30.65;;
35380;SDS011;21486;51.916;8.378;2023-03-03T10:06:33;75.65;;;29.50;;
35380;SDS011;21486;51.916;8.378;2023-03-03T10:14:23;73.25;;;30.08;;
35380;SDS011;21486;51.916;8.378;2023-03-03T11:23:31;65.95;;;20.35;;
35380;SDS011;21486;51.916;8.378;2023-03-03T11:26:16;59.78;;;19.80;;
35380;SDS011;21486;51.916;8.378;2023-03-03T11:34:20;58.65;;;19.13;;
35380;SDS011;21486;51.916;8.378;2023-03-03T11:39:34;59.53;;;19.38;;
35380;SDS011;21486;51.916;8.378;2023-03-03T11:42:05;61.75;;;24.92;;
35380;SDS011;21486;51.916;8.378;2023-03-03T11:44:54;64.47;;;26.65;;
35380;SDS011;21486;51.916;8.378;2023-03-03T11:47:27;64.75;;;26.98;;
35380;SDS011;21486;51.916;8.378;2023-03-03T11:52:50;56.95;;;24.05;;
35380;SDS011;21486;51.916;8.378;2023-03-03T11:55:29;56.15;;;24.35;;
35380;SDS011;21486;51.916;8.378;2023-03-03T11:58:13;61.85;;;25.42;;
35380;SDS011;21486;51.916;8.378;2023-03-03T12:03:53;59.35;;;24.40;;
35380;SDS011;21486;51.916;8.378;2023-03-03T12:13:59;67.10;;;28.97;;
35380;SDS011;21486;51.916;8.378;2023-03-03T12:22:18;74.63;;;30.15;;
35380;SDS011;21486;51.916;8.378;2023-03-03T12:33:16;71.40;;;29.67;;
35380;SDS011;21486;51.916;8.378;2023-03-03T12:38:55;65.93;;;28.85;;
35380;SDS011;21486;51.916;8.378;2023-03-03T12:47:08;70.07;;;28.10;;
35380;SDS011;21486;51.916;8.378;2023-03-03T12:52:40;62.90;;;26.88;;
35380;SDS011;21486;51.916;8.378;2023-03-03T12:55:36;62.97;;;25.88;;
